createdAt,value
2018-12-30T00:04:51.015Z,8.20
2018-12-30T00:07:17.656Z,8.20
2018-12-30T00:09:45.127Z,8.20
2018-12-30T00:12:11.849Z,8.20
2018-12-30T00:14:38.423Z,8.30
2018-12-30T00:17:04.782Z,8.20
2018-12-30T00:19:31.145Z,8.20
2018-12-30T00:21:57.986Z,8.20
2018-12-30T00:24:24.702Z,8.20
2018-12-30T00:26:51.167Z,8.20
2018-12-30T00:29:17.535Z,8.10
2018-12-30T00:34:10.807Z,8.10
2018-12-30T00:39:04.835Z,8.20
2018-12-30T00:43:58.173Z,8.10
2018-12-30T00:46:24.704Z,8.10
2018-12-30T00:48:51.235Z,8.10
2018-12-30T00:51:17.639Z,8.10
2018-12-30T00:53:45.302Z,8.10
2018-12-30T00:56:11.663Z,8.00
2018-12-30T00:58:38.045Z,8.10
2018-12-30T01:03:31.304Z,8.00
2018-12-30T01:05:57.845Z,8.00
2018-12-30T01:10:51.150Z,8.00
2018-12-30T01:13:17.761Z,8.00
2018-12-30T01:15:44.230Z,8.00
2018-12-30T01:18:10.739Z,7.90
2018-12-30T01:20:37.121Z,7.90
2018-12-30T01:23:03.632Z,7.90
2018-12-30T01:25:30.133Z,7.90
2018-12-30T01:27:56.575Z,7.90
2018-12-30T01:30:23.330Z,7.90
2018-12-30T01:32:49.769Z,7.90
2018-12-30T01:35:16.169Z,7.90
2018-12-30T01:37:42.669Z,7.90
2018-12-30T01:40:09.139Z,8.00
2018-12-30T01:42:35.685Z,8.10
2018-12-30T01:45:02.243Z,8.10
2018-12-30T01:47:28.655Z,8.10
2018-12-30T01:49:55.105Z,8.10
2018-12-30T01:52:21.511Z,8.10
2018-12-30T01:54:48.022Z,8.10
2018-12-30T01:57:15.586Z,8.00
2018-12-30T01:59:42.031Z,8.00
2018-12-30T02:04:35.900Z,8.00
2018-12-30T02:07:02.477Z,8.00
2018-12-30T02:09:28.918Z,8.00
2018-12-30T02:11:55.309Z,8.00
2018-12-30T02:14:21.731Z,8.00
2018-12-30T02:16:48.704Z,8.00
2018-12-30T02:19:15.166Z,8.00
2018-12-30T02:21:41.645Z,8.00
2018-12-30T02:24:08.165Z,8.00
2018-12-30T02:26:34.900Z,8.00
2018-12-30T02:29:01.287Z,8.00
2018-12-30T02:31:28.111Z,8.00
2018-12-30T02:33:54.572Z,8.00
2018-12-30T02:36:20.984Z,7.90
2018-12-30T02:38:47.503Z,7.90
2018-12-30T02:41:13.927Z,7.90
2018-12-30T02:43:40.490Z,7.90
2018-12-30T02:46:06.931Z,8.00
2018-12-30T02:51:00.253Z,8.00
2018-12-30T02:53:26.759Z,8.00
2018-12-30T02:55:53.181Z,8.00
2018-12-30T02:58:19.610Z,8.00
2018-12-30T03:00:47.323Z,8.00
2018-12-30T03:03:13.775Z,8.00
2018-12-30T03:05:40.172Z,8.00
2018-12-30T03:08:06.821Z,7.90
2018-12-30T03:10:33.175Z,7.90
2018-12-30T03:12:59.575Z,7.90
2018-12-30T03:15:26.456Z,8.00
2018-12-30T03:17:52.869Z,7.90
2018-12-30T03:20:19.262Z,8.00
2018-12-30T03:22:45.756Z,8.00
2018-12-30T03:25:12.276Z,8.00
2018-12-30T03:27:38.711Z,7.90
2018-12-30T03:30:06.718Z,7.90
2018-12-30T03:32:33.198Z,7.90
2018-12-30T03:37:26.467Z,7.90
2018-12-30T03:39:52.823Z,7.90
2018-12-30T03:42:21.090Z,7.90
2018-12-30T03:44:47.688Z,7.90
2018-12-30T03:47:14.076Z,7.90
2018-12-30T03:49:40.675Z,7.90
2018-12-30T03:52:08.581Z,7.90
2018-12-30T03:57:02.155Z,7.80
2018-12-30T03:59:28.558Z,7.80
2018-12-30T04:01:54.942Z,7.90
2018-12-30T04:04:21.433Z,7.90
2018-12-30T04:06:47.901Z,7.90
2018-12-30T04:09:14.292Z,8.00
2018-12-30T04:11:40.710Z,7.90
2018-12-30T04:14:07.252Z,8.00
2018-12-30T04:19:00.661Z,7.90
2018-12-30T04:21:27.095Z,7.90
2018-12-30T04:23:53.467Z,7.90
2018-12-30T04:26:19.828Z,7.90
2018-12-30T04:28:46.224Z,7.80
2018-12-30T04:31:12.637Z,7.80
2018-12-30T04:33:39.422Z,7.80
2018-12-30T04:36:05.811Z,7.80
2018-12-30T04:38:32.188Z,7.80
2018-12-30T04:40:58.572Z,7.80
2018-12-30T04:43:24.939Z,7.80
2018-12-30T04:45:51.446Z,7.80
2018-12-30T04:48:17.860Z,7.80
2018-12-30T04:50:44.241Z,7.80
2018-12-30T04:53:10.652Z,7.80
2018-12-30T04:55:37.011Z,7.80
2018-12-30T04:58:03.395Z,7.80
2018-12-30T05:00:29.813Z,7.80
2018-12-30T05:02:56.315Z,7.80
2018-12-30T05:05:23.304Z,7.70
2018-12-30T05:07:49.808Z,7.70
2018-12-30T05:10:16.351Z,7.70
2018-12-30T05:12:42.713Z,7.70
2018-12-30T05:15:09.165Z,7.70
2018-12-30T05:17:35.536Z,7.80
2018-12-30T05:20:02.523Z,7.80
2018-12-30T05:22:33.777Z,7.70
2018-12-30T05:24:57.081Z,7.80
2018-12-30T05:27:24.707Z,7.70
2018-12-30T05:32:17.860Z,7.60
2018-12-30T05:37:11.054Z,7.60
2018-12-30T05:39:37.996Z,7.60
2018-12-30T05:42:04.684Z,7.50
2018-12-30T05:44:31.181Z,7.50
2018-12-30T05:46:57.686Z,7.40
2018-12-30T05:49:24.080Z,7.50
2018-12-30T05:51:50.647Z,7.50
2018-12-30T05:54:17.063Z,7.40
2018-12-30T05:59:10.351Z,7.50
2018-12-30T06:01:36.761Z,7.50
2018-12-30T06:04:03.152Z,7.50
2018-12-30T06:06:29.517Z,7.50
2018-12-30T06:08:55.985Z,7.40
2018-12-30T06:11:22.587Z,7.40
2018-12-30T06:13:49.376Z,7.40
2018-12-30T06:16:16.613Z,7.30
2018-12-30T06:18:42.964Z,7.30
2018-12-30T06:21:09.412Z,7.30
2018-12-30T06:23:35.882Z,7.30
2018-12-30T06:26:02.439Z,7.30
2018-12-30T06:28:28.838Z,7.40
2018-12-30T06:30:55.237Z,7.40
2018-12-30T06:33:21.754Z,7.40
2018-12-30T06:35:48.222Z,7.50
2018-12-30T06:38:14.675Z,7.50
2018-12-30T06:40:41.201Z,7.50
2018-12-30T06:43:07.556Z,7.50
2018-12-30T06:45:34.156Z,7.40
2018-12-30T06:48:00.639Z,7.40
2018-12-30T06:50:27.418Z,7.40
2018-12-30T06:55:23.404Z,7.30
2018-12-30T07:00:16.750Z,7.20
2018-12-30T07:02:43.112Z,7.20
2018-12-30T07:05:09.675Z,7.30
2018-12-30T07:07:36.061Z,7.30
2018-12-30T07:10:03.092Z,7.40
2018-12-30T07:12:31.278Z,7.40
2018-12-30T07:14:57.812Z,7.40
2018-12-30T07:17:24.276Z,7.30
2018-12-30T07:19:50.678Z,7.30
2018-12-30T07:22:17.122Z,7.30
2018-12-30T07:24:43.560Z,7.20
2018-12-30T07:27:10.070Z,7.20
2018-12-30T07:29:36.466Z,7.20
2018-12-30T07:32:02.891Z,7.20
2018-12-30T07:36:56.059Z,7.30
2018-12-30T07:39:22.449Z,7.30
2018-12-30T07:41:48.925Z,7.30
2018-12-30T07:44:15.339Z,7.30
2018-12-30T07:46:41.771Z,7.30
2018-12-30T07:49:08.236Z,7.30
2018-12-30T07:51:34.688Z,7.40
2018-12-30T07:56:27.884Z,7.30
2018-12-30T07:58:54.325Z,7.40
2018-12-30T08:01:20.911Z,7.40
2018-12-30T08:03:47.363Z,7.40
2018-12-30T08:06:13.850Z,7.40
2018-12-30T08:08:40.267Z,7.40
2018-12-30T08:11:06.869Z,7.40
2018-12-30T08:16:00.161Z,7.50
2018-12-30T08:18:26.516Z,7.40
2018-12-30T08:20:52.935Z,7.40
2018-12-30T08:23:21.771Z,7.30
2018-12-30T08:25:47.719Z,7.30
2018-12-30T08:28:14.070Z,7.10
2018-12-30T08:30:40.868Z,7.10
2018-12-30T08:33:07.323Z,7.10
2018-12-30T08:38:01.411Z,7.20
2018-12-30T08:40:27.939Z,7.30
2018-12-30T08:47:48.131Z,7.50
2018-12-30T08:52:41.455Z,7.70
2018-12-30T08:55:07.950Z,7.70
2018-12-30T09:00:02.085Z,8.00
2018-12-30T09:02:28.623Z,8.10
2018-12-30T09:04:55.042Z,8.20
2018-12-30T09:07:21.468Z,8.30
2018-12-30T09:09:47.861Z,8.50
2018-12-30T09:14:41.437Z,8.80
2018-12-30T09:17:07.836Z,8.90
2018-12-30T09:22:00.951Z,9.00
2018-12-30T09:31:48.014Z,10.30
2018-12-30T09:34:14.443Z,10.10
2018-12-30T09:36:40.881Z,9.70
2018-12-30T09:41:34.073Z,9.20
2018-12-30T09:44:00.468Z,9.10
2018-12-30T09:46:26.865Z,9.10
2018-12-30T09:48:53.258Z,9.00
2018-12-30T09:51:19.771Z,8.90
2018-12-30T09:53:46.259Z,8.90
2018-12-30T09:56:12.659Z,8.90
2018-12-30T09:58:39.189Z,8.90
2018-12-30T10:03:32.327Z,9.00
2018-12-30T10:08:25.593Z,9.00
2018-12-30T10:10:52.033Z,9.00
2018-12-30T10:13:18.457Z,9.00
2018-12-30T10:15:44.904Z,9.00
2018-12-30T10:18:11.317Z,9.10
2018-12-30T10:20:37.704Z,9.10
2018-12-30T10:23:04.107Z,9.10
2018-12-30T10:25:30.535Z,9.10
2018-12-30T10:27:57.126Z,9.10
2018-12-30T10:30:26.687Z,9.10
2018-12-30T10:32:53.401Z,9.10
2018-12-30T10:35:19.870Z,9.00
2018-12-30T10:37:46.304Z,9.00
2018-12-30T10:40:13.032Z,8.90
2018-12-30T10:42:39.592Z,8.90
2018-12-30T10:45:06.250Z,9.00
2018-12-30T10:49:59.431Z,9.10
2018-12-30T10:52:25.828Z,9.00
2018-12-30T10:54:52.292Z,9.10
2018-12-30T10:59:45.670Z,8.90
2018-12-30T11:02:12.420Z,8.90
2018-12-30T11:04:38.908Z,8.80
2018-12-30T11:07:05.377Z,8.80
2018-12-30T11:11:58.627Z,8.70
2018-12-30T11:14:25.031Z,8.70
2018-12-30T11:16:51.475Z,8.80
2018-12-30T11:19:18.082Z,8.80
2018-12-30T11:21:44.647Z,8.80
2018-12-30T11:24:11.124Z,8.80
2018-12-30T11:26:37.507Z,8.80
2018-12-30T11:29:04.041Z,8.80
2018-12-30T11:31:30.503Z,8.80
2018-12-30T11:36:23.703Z,8.70
2018-12-30T11:41:17.147Z,8.70
2018-12-30T11:43:43.863Z,8.70
2018-12-30T11:46:10.917Z,8.60
2018-12-30T11:53:31.681Z,8.70
2018-12-30T11:58:25.836Z,8.70
2018-12-30T12:00:52.573Z,8.70
2018-12-30T12:03:19.170Z,8.80
2018-12-30T12:08:12.830Z,8.80
2018-12-30T12:10:39.202Z,8.90
2018-12-30T12:13:05.694Z,8.90
2018-12-30T12:15:32.223Z,8.90
2018-12-30T12:17:58.628Z,8.90
2018-12-30T12:20:25.088Z,8.90
2018-12-30T12:25:18.452Z,9.00
2018-12-30T12:27:44.975Z,9.00
2018-12-30T12:30:13.129Z,9.00
2018-12-30T12:32:39.668Z,8.90
2018-12-30T12:35:06.708Z,9.00
2018-12-30T12:37:33.216Z,9.00
2018-12-30T12:39:59.969Z,9.00
2018-12-30T12:42:26.581Z,9.00
2018-12-30T12:44:53.005Z,9.00
2018-12-30T12:49:46.224Z,9.00
2018-12-30T12:52:12.588Z,9.00
2018-12-30T12:54:39.117Z,9.10
2018-12-30T12:57:05.612Z,9.10
2018-12-30T13:01:58.811Z,9.20
2018-12-30T13:04:25.346Z,9.20
2018-12-30T13:06:51.744Z,9.10
2018-12-30T13:09:18.249Z,9.10
2018-12-30T13:14:11.664Z,9.10
2018-12-30T13:16:38.030Z,9.00
2018-12-30T13:19:04.377Z,9.00
2018-12-30T13:21:30.833Z,8.90
2018-12-30T13:26:24.125Z,8.90
2018-12-30T13:28:50.558Z,8.80
2018-12-30T13:31:17.072Z,8.80
2018-12-30T13:33:46.487Z,8.80
2018-12-30T13:36:13.335Z,8.80
2018-12-30T13:38:39.774Z,8.80
2018-12-30T13:41:06.223Z,8.80
2018-12-30T13:43:32.643Z,8.80
2018-12-30T13:45:59.109Z,8.80
2018-12-30T13:48:25.624Z,8.70
2018-12-30T13:50:52.031Z,8.70
2018-12-30T13:55:45.338Z,8.70
2018-12-30T14:00:38.581Z,8.60
2018-12-30T14:03:04.997Z,8.60
2018-12-30T14:07:58.334Z,8.40
2018-12-30T14:12:51.552Z,8.40
2018-12-30T14:15:18.054Z,8.40
2018-12-30T14:17:45.518Z,8.40
2018-12-30T14:27:33.358Z,8.30
2018-12-30T14:29:59.779Z,8.30
2018-12-30T14:34:53.087Z,8.30
2018-12-30T14:37:21.415Z,8.30
2018-12-30T14:39:47.890Z,8.30
2018-12-30T14:42:14.421Z,8.30
2018-12-30T14:47:07.573Z,8.20
2018-12-30T14:49:34.181Z,8.30
2018-12-30T14:54:27.388Z,8.30
2018-12-30T14:56:53.835Z,8.30
2018-12-30T14:59:20.292Z,8.30
2018-12-30T15:01:46.732Z,8.30
2018-12-30T15:06:40.187Z,8.20
2018-12-30T15:11:33.476Z,8.20
2018-12-30T15:13:59.974Z,8.20
2018-12-30T15:21:21.429Z,8.00
2018-12-30T15:23:47.795Z,8.00
2018-12-30T15:26:14.644Z,7.90
2018-12-30T15:33:34.713Z,7.70
2018-12-30T15:36:01.299Z,7.70
2018-12-30T15:38:27.701Z,7.70
2018-12-30T15:40:54.203Z,7.60
2018-12-30T15:43:22.174Z,7.60
2018-12-30T15:45:48.580Z,7.60
2018-12-30T15:50:41.786Z,7.50
2018-12-30T15:53:08.311Z,7.60
2018-12-30T15:55:34.789Z,7.60
2018-12-30T15:58:01.521Z,7.60
2018-12-30T16:02:56.134Z,7.60
2018-12-30T16:05:22.630Z,7.60
2018-12-30T16:07:49.032Z,7.70
2018-12-30T16:10:15.501Z,7.70
2018-12-30T16:12:41.913Z,7.70
2018-12-30T16:17:36.062Z,7.60
2018-12-30T16:20:04.255Z,7.60
2018-12-30T16:22:30.647Z,7.50
2018-12-30T16:24:57.051Z,7.50
2018-12-30T16:27:23.560Z,7.50
2018-12-30T16:32:16.791Z,7.50
2018-12-30T16:34:43.160Z,7.50
2018-12-30T16:39:36.657Z,7.40
2018-12-30T16:49:23.376Z,7.30
2018-12-30T16:51:50.565Z,7.30
2018-12-30T16:54:17.067Z,7.30
2018-12-30T17:01:37.099Z,7.20
2018-12-30T17:04:03.487Z,7.20
2018-12-30T17:06:33.936Z,7.20
2018-12-30T17:09:00.244Z,7.20
2018-12-30T17:11:26.591Z,7.20
2018-12-30T17:16:19.860Z,7.20
2018-12-30T17:18:46.280Z,7.20
2018-12-30T17:21:12.674Z,7.20
2018-12-30T17:26:05.914Z,7.20
2018-12-30T17:28:32.353Z,7.20
2018-12-30T17:30:59.061Z,7.20
2018-12-30T17:33:25.437Z,7.20
2018-12-30T17:35:51.930Z,7.20
2018-12-30T17:38:18.312Z,7.20
2018-12-30T17:40:44.730Z,7.30
2018-12-30T17:48:04.742Z,7.30
2018-12-30T17:50:31.118Z,7.30
2018-12-30T17:52:57.619Z,7.30
2018-12-30T17:55:25.235Z,7.30
2018-12-30T17:57:51.611Z,7.30
2018-12-30T18:00:18.243Z,7.30
2018-12-30T18:02:44.615Z,7.30
2018-12-30T18:07:38.105Z,7.40
2018-12-30T18:10:05.120Z,7.40
2018-12-30T18:12:31.926Z,7.40
2018-12-30T18:14:58.366Z,7.40
2018-12-30T18:17:24.801Z,7.40
2018-12-30T18:22:17.976Z,7.50
2018-12-30T18:24:44.386Z,7.50
2018-12-30T18:29:37.745Z,7.50
2018-12-30T18:36:57.965Z,7.60
2018-12-30T18:39:24.384Z,7.60
2018-12-30T18:41:50.840Z,7.60
2018-12-30T18:46:44.044Z,7.60
2018-12-30T18:49:10.634Z,7.60
2018-12-30T18:51:37.126Z,7.60
2018-12-30T18:54:05.896Z,7.70
2018-12-30T18:56:32.191Z,7.60
2018-12-30T18:58:59.720Z,7.60
2018-12-30T19:01:26.135Z,7.70
2018-12-30T19:06:19.260Z,7.70
2018-12-30T19:13:39.343Z,7.70
2018-12-30T19:18:32.967Z,7.70
2018-12-30T19:23:26.220Z,7.80
2018-12-30T19:25:52.610Z,7.80
2018-12-30T19:30:46.200Z,7.80
2018-12-30T19:35:40.693Z,7.80
2018-12-30T19:38:07.250Z,7.80
2018-12-30T19:40:33.678Z,7.80
2018-12-30T19:43:00.140Z,7.80
2018-12-30T19:45:26.699Z,7.90
2018-12-30T19:47:53.116Z,7.80
2018-12-30T19:50:19.537Z,7.90
2018-12-30T19:57:39.535Z,7.90
2018-12-30T20:00:08.108Z,7.90
2018-12-30T20:02:34.516Z,7.90
2018-12-30T20:05:01.012Z,7.90
2018-12-30T20:07:28.690Z,8.00
2018-12-30T20:09:55.133Z,7.90
2018-12-30T20:12:21.699Z,8.00
2018-12-30T20:14:48.062Z,8.00
2018-12-30T20:17:14.430Z,8.00
2018-12-30T20:22:07.692Z,8.00
2018-12-30T20:24:34.209Z,8.00
2018-12-30T20:27:00.607Z,8.00
2018-12-30T20:29:27.037Z,8.00
2018-12-30T20:31:53.472Z,8.00
2018-12-30T20:34:20.722Z,8.00
2018-12-30T20:36:47.181Z,8.00
2018-12-30T20:41:41.018Z,8.00
2018-12-30T20:44:07.471Z,8.00
2018-12-30T20:46:33.989Z,8.00
2018-12-30T20:49:00.392Z,8.00
2018-12-30T20:51:26.766Z,8.10
2018-12-30T20:53:53.168Z,8.10
2018-12-30T20:56:19.612Z,8.10
2018-12-30T20:58:45.997Z,8.10
2018-12-30T21:01:12.393Z,8.20
2018-12-30T21:06:05.582Z,8.10
2018-12-30T21:10:58.995Z,8.10
2018-12-30T21:13:25.522Z,8.10
2018-12-30T21:18:18.779Z,8.20
2018-12-30T21:23:11.869Z,8.20
2018-12-30T21:25:38.284Z,8.20
2018-12-30T21:28:04.639Z,8.20
2018-12-30T21:32:57.851Z,8.20
2018-12-30T21:37:51.151Z,8.10
2018-12-30T21:40:17.702Z,8.20
2018-12-30T21:47:37.593Z,8.30
2018-12-30T21:54:58.556Z,8.30
2018-12-30T21:57:25.063Z,8.30
2018-12-30T21:59:51.553Z,8.30
2018-12-30T22:04:44.853Z,8.30
2018-12-30T22:07:11.251Z,8.30
2018-12-30T22:09:37.659Z,8.30
2018-12-30T22:12:04.336Z,8.30
2018-12-30T22:14:30.887Z,8.30
2018-12-30T22:16:57.405Z,8.30
2018-12-30T22:19:23.799Z,8.30
2018-12-30T22:21:50.216Z,8.40
2018-12-30T22:26:44.542Z,8.40
2018-12-30T22:31:37.685Z,8.40
2018-12-30T22:36:30.830Z,8.40
2018-12-30T22:38:57.690Z,8.40
2018-12-30T22:41:24.118Z,8.50
2018-12-30T22:43:50.497Z,8.50
2018-12-30T22:48:43.830Z,8.50
2018-12-30T22:51:10.482Z,8.50
2018-12-30T22:53:37.000Z,8.50
2018-12-30T22:56:03.451Z,8.50
2018-12-30T22:58:29.946Z,8.50
2018-12-30T23:03:25.297Z,8.50
2018-12-30T23:05:51.807Z,8.50
2018-12-30T23:08:18.204Z,8.50
2018-12-30T23:10:46.554Z,8.50
2018-12-30T23:13:13.187Z,8.50
2018-12-30T23:15:39.670Z,8.50
2018-12-30T23:18:06.100Z,8.50
2018-12-30T23:20:32.463Z,8.50
2018-12-30T23:22:58.969Z,8.50
2018-12-30T23:27:53.492Z,8.50
2018-12-30T23:30:19.932Z,8.60
2018-12-30T23:32:46.341Z,8.60
2018-12-30T23:35:12.691Z,8.60
2018-12-30T23:40:05.955Z,8.60
2018-12-30T23:44:59.072Z,8.60
2018-12-30T23:47:25.491Z,8.60
2018-12-30T23:52:18.691Z,8.60
2018-12-30T23:54:45.077Z,8.60
2018-12-30T23:59:38.687Z,8.60
